createdAt,value
2022-11-28T00:01:35.737Z,23.25
2022-11-28T00:04:03.667Z,21.77
2022-11-28T00:06:30.541Z,24.23
2022-11-28T00:08:59.546Z,19.20
2022-11-28T00:11:26.739Z,22.52
2022-11-28T00:13:55.059Z,21.05
2022-11-28T00:16:23.303Z,20.08
2022-11-28T00:18:52.751Z,23.75
2022-11-28T00:21:20.011Z,18.90
2022-11-28T00:23:48.684Z,19.00
2022-11-28T00:26:20.244Z,21.55
2022-11-28T00:28:48.004Z,22.25
2022-11-28T00:31:20.365Z,20.58
2022-11-28T00:33:47.989Z,17.00
2022-11-28T00:36:15.038Z,23.63
2022-11-28T00:38:42.053Z,18.90
2022-11-28T00:41:21.937Z,20.35
2022-11-28T00:43:50.213Z,17.65
2022-11-28T00:46:18.222Z,16.35
2022-11-28T00:48:46.375Z,18.60
2022-11-28T00:51:18.406Z,19.60
2022-11-28T00:53:48.177Z,20.05
2022-11-28T00:56:17.610Z,23.27
2022-11-28T00:58:45.559Z,17.77
2022-11-28T01:01:21.750Z,18.30
2022-11-28T01:03:55.367Z,16.85
2022-11-28T01:06:23.696Z,19.23
2022-11-28T01:08:51.720Z,20.95
2022-11-28T01:11:18.983Z,22.05
2022-11-28T01:13:46.268Z,17.63
2022-11-28T01:16:12.996Z,17.70
2022-11-28T01:18:40.391Z,25.77
2022-11-28T01:21:13.351Z,22.70
2022-11-28T01:23:40.656Z,19.90
2022-11-28T01:26:09.160Z,19.10
2022-11-28T01:28:36.283Z,18.40
2022-11-28T01:31:08.544Z,20.23
2022-11-28T01:33:35.482Z,17.77
2022-11-28T01:36:04.531Z,18.98
2022-11-28T01:38:32.005Z,19.75
2022-11-28T01:40:58.893Z,19.00
2022-11-28T01:43:26.090Z,17.13
2022-11-28T01:45:53.702Z,19.13
2022-11-28T01:48:35.888Z,19.00
2022-11-28T01:51:07.904Z,20.83
2022-11-28T01:53:38.374Z,17.25
2022-11-28T01:56:15.378Z,17.58
2022-11-28T01:58:47.629Z,18.05
2022-11-28T02:01:15.975Z,18.05
2022-11-28T02:03:48.449Z,20.33
2022-11-28T02:06:18.879Z,17.98
2022-11-28T02:08:46.222Z,19.55
2022-11-28T02:11:45.117Z,20.40
2022-11-28T02:14:40.723Z,20.40
2022-11-28T02:17:46.814Z,24.25
2022-11-28T02:20:42.754Z,25.83
2022-11-28T02:23:22.302Z,21.40
2022-11-28T02:26:11.369Z,25.08
2022-11-28T02:29:10.619Z,20.25
2022-11-28T02:32:22.122Z,21.92
2022-11-28T02:34:49.254Z,22.45
2022-11-28T02:37:27.520Z,18.63
2022-11-28T02:40:20.639Z,30.63
2022-11-28T02:43:35.238Z,22.55
2022-11-28T02:46:13.232Z,22.90
2022-11-28T02:48:49.531Z,21.92
2022-11-28T02:51:30.843Z,22.92
2022-11-28T02:53:59.708Z,23.88
2022-11-28T02:56:27.010Z,20.83
2022-11-28T02:58:53.756Z,25.73
2022-11-28T03:01:26.007Z,28.27
2022-11-28T03:04:07.838Z,27.83
2022-11-28T03:07:00.140Z,25.00
2022-11-28T03:09:51.015Z,25.52
2022-11-28T03:12:50.877Z,21.88
2022-11-28T03:15:22.517Z,26.27
2022-11-28T03:18:13.768Z,29.02
2022-11-28T03:20:58.052Z,23.98
2022-11-28T03:23:34.102Z,24.92
2022-11-28T03:26:25.021Z,28.45
2022-11-28T03:29:00.694Z,28.42
2022-11-28T03:31:36.828Z,33.20
2022-11-28T03:34:06.564Z,29.13
2022-11-28T03:36:41.233Z,23.02
2022-11-28T03:39:21.593Z,32.90
2022-11-28T03:41:57.347Z,28.60
2022-11-28T03:44:40.486Z,25.45
2022-11-28T03:47:10.227Z,25.58
2022-11-28T03:49:44.872Z,28.40
2022-11-28T03:52:29.502Z,26.38
2022-11-28T03:55:00.943Z,30.00
2022-11-28T03:57:42.654Z,25.63
2022-11-28T04:00:12.790Z,29.95
2022-11-28T04:02:45.555Z,29.23
2022-11-28T04:05:25.007Z,31.38
2022-11-28T04:07:58.474Z,27.55
2022-11-28T04:10:48.211Z,30.88
2022-11-28T04:13:26.495Z,27.83
2022-11-28T04:16:01.835Z,30.42
2022-11-28T04:18:40.263Z,32.35
2022-11-28T04:21:15.948Z,30.60
2022-11-28T04:23:45.688Z,31.52
2022-11-28T04:26:20.069Z,28.58
2022-11-28T04:28:49.690Z,28.80
2022-11-28T04:31:18.876Z,30.95
2022-11-28T04:33:51.482Z,36.75
2022-11-28T04:36:20.120Z,32.80
2022-11-28T04:38:56.351Z,32.40
2022-11-28T04:41:43.617Z,34.97
2022-11-28T04:44:15.118Z,38.75
2022-11-28T04:46:46.324Z,38.20
2022-11-28T04:49:13.690Z,35.38
2022-11-28T04:51:59.470Z,30.70
2022-11-28T04:54:40.178Z,34.35
2022-11-28T04:57:24.646Z,38.53
2022-11-28T04:59:52.246Z,36.28
2022-11-28T05:02:21.679Z,38.53
2022-11-28T05:04:48.268Z,33.95
2022-11-28T05:07:15.556Z,33.78
2022-11-28T05:09:42.312Z,39.92
2022-11-28T05:12:09.762Z,31.55
2022-11-28T05:14:36.430Z,35.92
2022-11-28T05:17:03.688Z,33.47
2022-11-28T05:19:30.347Z,33.00
2022-11-28T05:21:57.595Z,33.25
2022-11-28T05:24:29.240Z,36.38
2022-11-28T05:26:59.442Z,38.25
2022-11-28T05:29:26.030Z,31.65
2022-11-28T05:31:53.350Z,34.50
2022-11-28T05:34:19.975Z,37.33
2022-11-28T05:36:46.913Z,34.97
2022-11-28T05:39:14.148Z,39.90
2022-11-28T05:41:40.763Z,33.55
2022-11-28T05:44:08.035Z,32.92
2022-11-28T05:46:34.635Z,32.13
2022-11-28T05:49:01.987Z,37.38
2022-11-28T05:51:28.549Z,30.40
2022-11-28T05:53:56.155Z,40.35
2022-11-28T05:56:23.284Z,37.80
2022-11-28T05:58:52.153Z,35.85
2022-11-28T06:01:24.504Z,33.22
2022-11-28T06:03:58.417Z,31.58
2022-11-28T06:06:26.130Z,30.08
2022-11-28T06:08:53.382Z,36.40
2022-11-28T06:11:22.307Z,35.10
2022-11-28T06:13:50.130Z,33.13
2022-11-28T06:16:19.533Z,36.55
2022-11-28T06:18:47.331Z,29.95
2022-11-28T06:21:15.627Z,33.05
2022-11-28T06:23:43.195Z,33.30
2022-11-28T06:26:15.749Z,34.05
2022-11-28T06:31:12.078Z,31.70
2022-11-28T06:33:39.674Z,31.08
2022-11-28T06:36:06.880Z,30.35
2022-11-28T06:38:34.884Z,34.10
2022-11-28T06:41:04.712Z,27.85
2022-11-28T06:43:32.288Z,29.17
2022-11-28T06:45:59.311Z,31.75
2022-11-28T06:48:26.966Z,26.55
2022-11-28T06:50:53.962Z,31.63
2022-11-28T06:53:21.289Z,33.20
2022-11-28T06:55:47.859Z,31.75
2022-11-28T06:58:15.419Z,32.83
2022-11-28T07:00:42.084Z,28.05
2022-11-28T07:03:09.072Z,30.45
2022-11-28T07:05:35.653Z,32.85
2022-11-28T07:08:03.091Z,26.35
2022-11-28T07:10:29.983Z,36.22
2022-11-28T07:13:04.892Z,32.50
2022-11-28T07:15:32.092Z,34.50
2022-11-28T07:17:59.412Z,30.35
2022-11-28T07:20:26.016Z,35.60
2022-11-28T07:22:53.322Z,32.92
2022-11-28T07:25:19.898Z,34.17
2022-11-28T07:27:47.204Z,37.90
2022-11-28T07:30:14.482Z,31.98
2022-11-28T07:32:41.360Z,29.85
2022-11-28T07:35:09.156Z,33.55
2022-11-28T07:37:36.312Z,30.25
2022-11-28T07:40:04.598Z,29.85
2022-11-28T07:42:31.253Z,34.33
2022-11-28T07:45:05.530Z,30.33
2022-11-28T07:47:32.133Z,31.30
2022-11-28T07:49:59.339Z,34.40
2022-11-28T07:52:25.924Z,34.97
2022-11-28T07:54:53.172Z,28.33
2022-11-28T07:57:19.732Z,31.05
2022-11-28T07:59:47.048Z,29.35
2022-11-28T08:02:13.705Z,30.15
2022-11-28T08:04:47.646Z,31.05
2022-11-28T08:07:16.509Z,30.38
2022-11-28T08:09:44.093Z,31.95
2022-11-28T08:12:11.007Z,38.67
2022-11-28T08:14:38.330Z,30.17
2022-11-28T08:17:04.975Z,28.13
2022-11-28T08:19:35.346Z,28.67
2022-11-28T08:22:02.393Z,34.97
2022-11-28T08:24:29.905Z,30.42
2022-11-28T08:26:57.041Z,31.98
2022-11-28T08:29:24.288Z,32.70
2022-11-28T08:31:50.885Z,34.70
2022-11-28T08:34:18.171Z,32.85
2022-11-28T08:36:44.800Z,33.83
2022-11-28T08:39:28.009Z,43.92
2022-11-28T08:44:30.175Z,30.77
2022-11-28T08:46:57.220Z,34.65
2022-11-28T08:49:24.484Z,31.25
2022-11-28T08:51:51.148Z,33.88
2022-11-28T08:54:18.469Z,36.35
2022-11-28T08:56:47.866Z,34.42
2022-11-28T08:59:15.114Z,37.20
2022-11-28T09:01:41.831Z,34.03
2022-11-28T09:04:09.233Z,36.00
2022-11-28T09:06:39.511Z,43.72
2022-11-28T09:09:06.354Z,36.30
2022-11-28T09:11:33.746Z,39.70
2022-11-28T09:14:00.395Z,41.00
2022-11-28T09:16:27.781Z,40.85
2022-11-28T09:18:57.283Z,39.55
2022-11-28T09:21:24.325Z,38.97
2022-11-28T09:23:54.643Z,33.38
2022-11-28T09:26:24.884Z,42.08
2022-11-28T09:28:54.538Z,38.67
2022-11-28T09:31:22.914Z,37.83
2022-11-28T09:33:49.617Z,42.45
2022-11-28T09:36:19.422Z,34.47
2022-11-28T09:38:47.254Z,41.50
2022-11-28T09:41:22.624Z,36.83
2022-11-28T09:43:54.682Z,39.60
2022-11-28T09:46:28.796Z,37.83
2022-11-28T09:49:00.436Z,40.10
2022-11-28T09:51:36.336Z,44.97
2022-11-28T09:54:28.733Z,41.15
2022-11-28T09:56:57.784Z,39.53
2022-11-28T09:59:29.911Z,40.38
2022-11-28T10:02:36.384Z,33.85
2022-11-28T10:05:30.096Z,39.38
2022-11-28T10:08:22.818Z,39.25
2022-11-28T10:11:01.056Z,36.65
2022-11-28T10:14:10.934Z,48.05
2022-11-28T10:17:04.067Z,40.88
2022-11-28T10:19:54.265Z,38.90
2022-11-28T10:22:31.005Z,41.22
2022-11-28T10:25:07.525Z,35.35
2022-11-28T10:27:36.254Z,44.08
2022-11-28T10:30:05.398Z,55.95
2022-11-28T10:32:36.462Z,48.90
2022-11-28T10:35:37.256Z,68.63
2022-11-28T10:38:13.669Z,67.78
2022-11-28T10:40:49.606Z,83.18
2022-11-28T10:43:29.234Z,137.00
2022-11-28T10:46:22.415Z,52.40
2022-11-28T10:49:09.724Z,38.03
2022-11-28T10:51:53.331Z,42.58
2022-11-28T10:54:46.748Z,42.75
2022-11-28T10:57:45.578Z,43.92
2022-11-28T11:00:15.126Z,39.55
2022-11-28T11:02:55.179Z,40.55
2022-11-28T11:05:27.723Z,37.08
2022-11-28T11:08:02.883Z,41.72
2022-11-28T11:10:45.239Z,41.67
2022-11-28T11:13:27.348Z,45.95
2022-11-28T11:16:12.043Z,41.15
2022-11-28T11:18:46.560Z,39.60
2022-11-28T11:21:25.112Z,37.50
2022-11-28T11:24:11.832Z,41.90
2022-11-28T11:26:43.472Z,44.63
2022-11-28T11:29:31.072Z,41.22
2022-11-28T11:32:03.398Z,38.25
2022-11-28T11:34:38.578Z,37.03
2022-11-28T11:37:36.284Z,35.13
2022-11-28T11:40:18.696Z,39.85
2022-11-28T11:42:56.613Z,39.13
2022-11-28T11:45:35.009Z,42.92
2022-11-28T11:48:03.961Z,60.42
2022-11-28T11:50:32.885Z,85.32
2022-11-28T11:53:01.553Z,48.05
2022-11-28T11:55:30.873Z,52.72
2022-11-28T11:58:05.451Z,51.92
2022-11-28T12:00:39.299Z,48.50
2022-11-28T12:03:24.687Z,48.92
2022-11-28T12:06:25.601Z,49.63
2022-11-28T12:08:55.063Z,45.03
2022-11-28T12:11:46.899Z,47.88
2022-11-28T12:14:36.164Z,47.70
2022-11-28T12:20:40.127Z,44.92
2022-11-28T12:23:40.519Z,48.45
2022-11-28T12:26:35.423Z,58.08
2022-11-28T12:29:42.088Z,49.30
2022-11-28T12:32:33.161Z,48.35
2022-11-28T12:35:25.162Z,53.47
2022-11-28T12:38:19.715Z,43.20
2022-11-28T12:41:04.336Z,47.45
2022-11-28T12:43:53.008Z,42.92
2022-11-28T12:46:40.676Z,41.70
2022-11-28T12:49:14.430Z,45.63
2022-11-28T12:51:53.588Z,43.88
2022-11-28T12:54:51.793Z,45.33
2022-11-28T12:57:36.386Z,41.47
2022-11-28T13:00:18.496Z,41.80
2022-11-28T13:02:56.492Z,37.50
2022-11-28T13:05:51.339Z,39.33
2022-11-28T13:08:46.504Z,33.65
2022-11-28T13:11:28.505Z,58.35
2022-11-28T13:14:18.321Z,50.78
2022-11-28T13:16:49.629Z,39.42
2022-11-28T13:19:47.660Z,40.53
2022-11-28T13:22:33.570Z,37.88
2022-11-28T13:25:20.054Z,36.78
2022-11-28T13:28:07.633Z,43.60
2022-11-28T13:30:42.474Z,35.40
2022-11-28T13:33:32.303Z,38.15
2022-11-28T13:36:00.100Z,35.67
2022-11-28T13:38:54.451Z,38.72
2022-11-28T13:42:13.951Z,45.50
2022-11-28T13:45:25.142Z,35.65
2022-11-28T13:47:55.739Z,45.28
2022-11-28T13:50:25.510Z,44.90
2022-11-28T13:53:07.493Z,51.03
2022-11-28T13:55:48.795Z,37.97
2022-11-28T13:58:19.394Z,47.17
2022-11-28T14:01:12.376Z,40.15
2022-11-28T14:03:48.000Z,42.85
2022-11-28T14:06:44.701Z,40.70
2022-11-28T14:09:11.932Z,47.25
2022-11-28T14:11:53.391Z,54.40
2022-11-28T14:14:33.677Z,46.58
2022-11-28T14:17:01.077Z,45.10
2022-11-28T14:19:55.040Z,45.30
2022-11-28T14:22:38.958Z,43.17
2022-11-28T14:25:18.736Z,45.75
2022-11-28T14:27:56.998Z,55.47
2022-11-28T14:30:40.224Z,49.05
2022-11-28T14:33:21.696Z,47.83
2022-11-28T14:35:54.681Z,45.67
2022-11-28T14:38:31.681Z,47.72
2022-11-28T14:41:01.452Z,50.63
2022-11-28T14:43:32.143Z,49.08
2022-11-28T14:46:15.864Z,47.03
2022-11-28T14:49:03.204Z,40.50
2022-11-28T14:51:48.549Z,45.58
2022-11-28T14:54:29.514Z,46.55
2022-11-28T14:56:59.939Z,55.58
2022-11-28T14:59:31.570Z,59.97
2022-11-28T15:02:05.972Z,79.88
2022-11-28T15:04:53.639Z,63.90
2022-11-28T15:07:58.127Z,76.38
2022-11-28T15:10:51.087Z,71.70
2022-11-28T15:13:43.387Z,73.70
2022-11-28T15:16:13.119Z,74.53
2022-11-28T15:18:50.476Z,58.88
2022-11-28T15:21:18.911Z,64.18
2022-11-28T15:23:49.107Z,60.08
2022-11-28T15:26:22.631Z,60.85
2022-11-28T15:28:49.267Z,68.53
2022-11-28T15:31:22.495Z,62.45
2022-11-28T15:33:50.821Z,62.83
2022-11-28T15:36:28.040Z,69.95
2022-11-28T15:38:56.157Z,68.72
2022-11-28T15:41:27.740Z,73.57
2022-11-28T15:43:56.720Z,61.03
2022-11-28T15:46:34.086Z,63.08
2022-11-28T15:49:01.920Z,70.93
2022-11-28T15:51:35.366Z,59.30
2022-11-28T15:54:10.664Z,58.17
2022-11-28T15:56:57.129Z,62.53
2022-11-28T15:59:24.497Z,60.03
2022-11-28T16:01:58.954Z,76.30
2022-11-28T16:04:28.089Z,53.03
2022-11-28T16:06:58.417Z,62.17
2022-11-28T16:09:38.703Z,70.25
2022-11-28T16:12:12.305Z,59.80
2022-11-28T16:14:45.400Z,60.80
2022-11-28T16:19:46.770Z,57.90
2022-11-28T16:22:19.798Z,64.90
2022-11-28T16:24:49.625Z,58.95
2022-11-28T16:27:30.066Z,61.83
2022-11-28T16:29:57.767Z,69.70
2022-11-28T16:32:38.941Z,76.78
2022-11-28T16:35:12.536Z,117.53
2022-11-28T16:37:39.268Z,130.23
2022-11-28T16:40:15.182Z,140.27
2022-11-28T16:42:42.087Z,115.88
2022-11-28T16:45:31.185Z,91.60
2022-11-28T16:48:09.863Z,78.15
2022-11-28T16:50:37.873Z,69.75
2022-11-28T16:53:05.303Z,76.13
2022-11-28T16:55:32.654Z,68.30
2022-11-28T16:58:08.420Z,63.72
2022-11-28T17:00:36.345Z,60.35
2022-11-28T17:03:04.024Z,64.47
2022-11-28T17:05:31.351Z,70.65
2022-11-28T17:07:58.685Z,64.00
2022-11-28T17:10:25.724Z,62.60
2022-11-28T17:12:52.447Z,68.60
2022-11-28T17:15:22.038Z,63.80
2022-11-28T17:17:48.646Z,55.88
2022-11-28T17:20:17.800Z,57.15
2022-11-28T17:22:46.766Z,65.70
2022-11-28T17:25:21.089Z,63.90
2022-11-28T17:27:48.047Z,63.67
2022-11-28T17:30:19.852Z,65.30
2022-11-28T17:32:51.790Z,68.32
2022-11-28T17:35:24.812Z,63.72
2022-11-28T17:37:51.482Z,65.53
2022-11-28T17:40:33.521Z,70.35
2022-11-28T17:43:01.077Z,64.45
2022-11-28T17:45:30.022Z,78.18
2022-11-28T17:47:57.034Z,67.55
2022-11-28T17:50:24.354Z,62.25
2022-11-28T17:52:51.534Z,71.65
2022-11-28T17:55:20.802Z,70.80
2022-11-28T17:57:47.803Z,68.50
2022-11-28T18:00:15.589Z,73.20
2022-11-28T18:02:43.666Z,98.72
2022-11-28T18:05:10.352Z,88.30
2022-11-28T18:07:38.821Z,75.97
2022-11-28T18:10:06.482Z,75.60
2022-11-28T18:12:33.463Z,72.13
2022-11-28T18:15:01.182Z,69.38
2022-11-28T18:17:28.371Z,81.10
2022-11-28T18:19:59.028Z,74.38
2022-11-28T18:22:25.675Z,73.03
2022-11-28T18:24:53.156Z,74.82
2022-11-28T18:27:19.820Z,77.25
2022-11-28T18:29:46.832Z,69.25
2022-11-28T18:32:13.624Z,70.78
2022-11-28T18:34:40.731Z,76.85
2022-11-28T18:37:08.220Z,80.43
2022-11-28T18:39:34.971Z,81.25
2022-11-28T18:42:01.753Z,88.90
2022-11-28T18:44:28.736Z,85.32
2022-11-28T18:46:55.655Z,77.97
2022-11-28T18:49:22.729Z,74.80
2022-11-28T18:51:50.045Z,80.20
2022-11-28T18:54:21.621Z,78.18
2022-11-28T18:56:49.089Z,90.80
2022-11-28T18:59:16.733Z,77.60
2022-11-28T19:01:43.432Z,66.45
2022-11-28T19:04:12.533Z,85.32
2022-11-28T19:06:40.443Z,79.95
2022-11-28T19:09:13.809Z,74.07
2022-11-28T19:11:41.062Z,83.95
2022-11-28T19:14:08.934Z,79.85
2022-11-28T19:16:37.451Z,81.00
2022-11-28T19:19:06.181Z,82.35
2022-11-28T19:21:35.030Z,87.28
2022-11-28T19:24:03.554Z,83.80
2022-11-28T19:26:31.367Z,92.18
2022-11-28T19:29:00.960Z,81.20
2022-11-28T19:31:30.061Z,81.95
2022-11-28T19:34:18.287Z,103.80
2022-11-28T19:36:47.893Z,94.50
2022-11-28T19:39:18.191Z,91.40
2022-11-28T19:41:46.020Z,83.03
2022-11-28T19:44:14.399Z,83.15
2022-11-28T19:46:41.634Z,89.78
2022-11-28T19:49:15.567Z,84.10
2022-11-28T19:51:42.214Z,104.45
2022-11-28T19:54:09.549Z,95.20
2022-11-28T19:56:36.243Z,83.03
2022-11-28T19:59:03.305Z,86.50
2022-11-28T20:01:30.407Z,82.55
2022-11-28T20:03:58.937Z,88.93
2022-11-28T20:06:29.340Z,83.10
2022-11-28T20:09:00.297Z,87.90
2022-11-28T20:11:32.305Z,92.70
2022-11-28T20:14:06.643Z,85.47
2022-11-28T20:16:35.114Z,89.88
2022-11-28T20:19:02.787Z,85.63
2022-11-28T20:21:29.929Z,90.93
2022-11-28T20:24:04.777Z,89.68
2022-11-28T20:26:42.560Z,77.43
2022-11-28T20:29:13.705Z,87.75
2022-11-28T20:31:45.536Z,78.28
2022-11-28T20:34:16.571Z,90.93
2022-11-28T20:36:43.947Z,78.53
2022-11-28T20:39:12.253Z,78.03
2022-11-28T20:41:39.382Z,86.40
2022-11-28T20:44:06.694Z,82.47
2022-11-28T20:46:35.376Z,72.97
2022-11-28T20:49:05.442Z,79.32
2022-11-28T20:51:34.110Z,95.13
2022-11-28T20:54:02.069Z,77.78
2022-11-28T20:56:31.647Z,69.70
2022-11-28T20:59:00.485Z,80.38
2022-11-28T21:01:30.592Z,80.40
2022-11-28T21:03:57.701Z,82.88
2022-11-28T21:06:24.705Z,80.18
2022-11-28T21:08:52.221Z,86.70
2022-11-28T21:11:43.824Z,82.05
2022-11-28T21:14:08.802Z,78.07
2022-11-28T21:16:35.488Z,76.85
2022-11-28T21:19:06.430Z,79.88
2022-11-28T21:21:35.386Z,86.80
2022-11-28T21:24:11.306Z,78.00
2022-11-28T21:26:43.220Z,83.90
2022-11-28T21:29:12.437Z,75.93
2022-11-28T21:31:44.621Z,79.13
2022-11-28T21:34:16.295Z,72.20
2022-11-28T21:36:43.950Z,82.57
2022-11-28T21:39:13.658Z,76.60
2022-11-28T21:41:40.828Z,90.25
2022-11-28T21:44:08.700Z,90.40
2022-11-28T21:46:35.370Z,97.18
2022-11-28T21:49:02.924Z,85.72
2022-11-28T21:51:29.680Z,83.55
2022-11-28T21:53:59.867Z,82.18
2022-11-28T21:56:27.003Z,84.45
2022-11-28T21:58:54.694Z,87.68
2022-11-28T22:01:21.968Z,90.30
2022-11-28T22:03:49.515Z,85.38
2022-11-28T22:06:23.323Z,81.10
2022-11-28T22:08:51.320Z,75.75
2022-11-28T22:11:20.295Z,76.95
2022-11-28T22:13:49.778Z,86.60
2022-11-28T22:16:16.479Z,74.70
2022-11-28T22:18:44.622Z,76.55
2022-11-28T22:21:49.963Z,84.43
2022-11-28T22:23:59.597Z,81.88
2022-11-28T22:26:26.257Z,79.68
2022-11-28T22:28:54.131Z,87.18
2022-11-28T22:31:22.986Z,79.25
2022-11-28T22:33:51.098Z,90.72
2022-11-28T22:36:20.803Z,84.28
2022-11-28T22:38:49.509Z,81.68
2022-11-28T22:41:23.288Z,79.32
2022-11-28T22:43:56.383Z,92.65
2022-11-28T22:46:23.717Z,78.88
2022-11-28T22:48:52.155Z,84.68
2022-11-28T22:51:23.391Z,85.03
2022-11-28T22:53:58.099Z,84.07
2022-11-28T22:56:27.859Z,80.22
2022-11-28T22:58:54.865Z,89.63
2022-11-28T23:01:25.877Z,77.07
2022-11-28T23:03:53.827Z,81.97
2022-11-28T23:06:27.389Z,90.97
2022-11-28T23:08:56.133Z,85.32
2022-11-28T23:11:27.634Z,80.95
2022-11-28T23:13:55.213Z,86.30
2022-11-28T23:16:28.352Z,83.25
2022-11-28T23:21:25.473Z,92.65
2022-11-28T23:23:52.765Z,91.70
2022-11-28T23:26:21.889Z,97.75
2022-11-28T23:28:49.200Z,92.85
2022-11-28T23:31:22.744Z,84.85
2022-11-28T23:36:19.898Z,91.82
2022-11-28T23:38:48.737Z,75.28
2022-11-28T23:41:16.491Z,87.90
2022-11-28T23:43:43.097Z,92.75
2022-11-28T23:46:11.517Z,103.80
2022-11-28T23:48:39.364Z,97.40
2022-11-28T23:51:07.354Z,94.53
2022-11-28T23:53:35.428Z,94.07
2022-11-28T23:56:08.075Z,102.53
2022-11-28T23:58:35.232Z,118.15
